sensor_id;sensor_type;location;lat;lon;timestamp;P1;durP1;ratioP1;P2;durP2;ratioP2
37241;SDS011;23135;51.078;12.108;2023-08-17T00:02:14;8.05;;;7.28;;
37241;SDS011;23135;51.078;12.108;2023-08-17T00:04:40;8.55;;;7.65;;
37241;SDS011;23135;51.078;12.108;2023-08-17T00:07:06;11.25;;;7.55;;
37241;SDS011;23135;51.078;12.108;2023-08-17T00:09:32;10.05;;;8.40;;
37241;SDS011;23135;51.078;12.108;2023-08-17T00:11:57;9.00;;;8.13;;
37241;SDS011;23135;51.078;12.108;2023-08-17T00:14:23;11.52;;;8.90;;
37241;SDS011;23135;51.078;12.108;2023-08-17T00:16:49;8.57;;;7.72;;
37241;SDS011;23135;51.078;12.108;2023-08-17T00:19:15;12.27;;;7.63;;
37241;SDS011;23135;51.078;12.108;2023-08-17T00:21:41;8.73;;;7.78;;
37241;SDS011;23135;51.078;12.108;2023-08-17T00:24:07;9.02;;;7.40;;
37241;SDS011;23135;51.078;12.108;2023-08-17T00:26:33;8.65;;;7.75;;
37241;SDS011;23135;51.078;12.108;2023-08-17T00:28:58;8.73;;;7.88;;
37241;SDS011;23135;51.078;12.108;2023-08-17T00:31:24;10.10;;;9.05;;
37241;SDS011;23135;51.078;12.108;2023-08-17T00:33:50;13.55;;;10.00;;
37241;SDS011;23135;51.078;12.108;2023-08-17T00:36:15;11.13;;;9.25;;
37241;SDS011;23135;51.078;12.108;2023-08-17T00:38:41;11.35;;;9.27;;
37241;SDS011;23135;51.078;12.108;2023-08-17T00:41:06;10.90;;;9.77;;
37241;SDS011;23135;51.078;12.108;2023-08-17T00:43:32;11.07;;;9.02;;
37241;SDS011;23135;51.078;12.108;2023-08-17T00:45:58;14.82;;;8.68;;
37241;SDS011;23135;51.078;12.108;2023-08-17T00:48:23;14.07;;;9.00;;
37241;SDS011;23135;51.078;12.108;2023-08-17T00:50:50;10.77;;;8.85;;
37241;SDS011;23135;51.078;12.108;2023-08-17T00:53:17;10.75;;;8.85;;
37241;SDS011;23135;51.078;12.108;2023-08-17T00:55:44;12.18;;;8.85;;
37241;SDS011;23135;51.078;12.108;2023-08-17T00:58:10;10.80;;;9.05;;
37241;SDS011;23135;51.078;12.108;2023-08-17T01:00:36;11.98;;;10.20;;
37241;SDS011;23135;51.078;12.108;2023-08-17T01:03:02;10.20;;;8.68;;
37241;SDS011;23135;51.078;12.108;2023-08-17T01:05:28;15.05;;;9.95;;
37241;SDS011;23135;51.078;12.108;2023-08-17T01:07:56;15.43;;;8.35;;
37241;SDS011;23135;51.078;12.108;2023-08-17T01:10:21;9.05;;;8.10;;
37241;SDS011;23135;51.078;12.108;2023-08-17T01:13:09;9.13;;;7.18;;
37241;SDS011;23135;51.078;12.108;2023-08-17T01:15:56;11.70;;;8.82;;
37241;SDS011;23135;51.078;12.108;2023-08-17T01:18:28;12.05;;;8.15;;
37241;SDS011;23135;51.078;12.108;2023-08-17T01:20:56;11.00;;;8.85;;
37241;SDS011;23135;51.078;12.108;2023-08-17T01:23:22;12.75;;;8.13;;
37241;SDS011;23135;51.078;12.108;2023-08-17T01:25:48;15.57;;;10.13;;
37241;SDS011;23135;51.078;12.108;2023-08-17T01:28:14;19.23;;;10.50;;
37241;SDS011;23135;51.078;12.108;2023-08-17T01:33:17;9.05;;;8.15;;
37241;SDS011;23135;51.078;12.108;2023-08-17T01:38:38;10.65;;;9.57;;
37241;SDS011;23135;51.078;12.108;2023-08-17T01:41:05;9.07;;;6.38;;
37241;SDS011;23135;51.078;12.108;2023-08-17T01:43:37;3.22;;;2.53;;
37241;SDS011;23135;51.078;12.108;2023-08-17T01:46:05;6.20;;;1.48;;
37241;SDS011;23135;51.078;12.108;2023-08-17T01:48:32;0.73;;;0.60;;
37241;SDS011;23135;51.078;12.108;2023-08-17T01:50:58;1.23;;;0.40;;
37241;SDS011;23135;51.078;12.108;2023-08-17T01:53:23;4.43;;;0.60;;
37241;SDS011;23135;51.078;12.108;2023-08-17T01:55:49;0.95;;;0.28;;
37241;SDS011;23135;51.078;12.108;2023-08-17T01:58:14;1.38;;;0.00;;
37241;SDS011;23135;51.078;12.108;2023-08-17T02:00:40;1.55;;;0.47;;
37241;SDS011;23135;51.078;12.108;2023-08-17T02:03:06;1.67;;;0.10;;
37241;SDS011;23135;51.078;12.108;2023-08-17T02:05:32;1.40;;;0.05;;
37241;SDS011;23135;51.078;12.108;2023-08-17T02:07:57;0.82;;;0.28;;
37241;SDS011;23135;51.078;12.108;2023-08-17T02:10:23;5.85;;;0.55;;
37241;SDS011;23135;51.078;12.108;2023-08-17T02:12:48;4.13;;;0.20;;
37241;SDS011;23135;51.078;12.108;2023-08-17T02:15:14;0.85;;;0.10;;
37241;SDS011;23135;51.078;12.108;2023-08-17T02:17:41;1.77;;;0.52;;
37241;SDS011;23135;51.078;12.108;2023-08-17T02:20:06;4.03;;;0.38;;
37241;SDS011;23135;51.078;12.108;2023-08-17T02:22:33;1.02;;;0.20;;
37241;SDS011;23135;51.078;12.108;2023-08-17T02:24:59;1.83;;;0.05;;
37241;SDS011;23135;51.078;12.108;2023-08-17T02:27:26;2.90;;;0.00;;
37241;SDS011;23135;51.078;12.108;2023-08-17T02:29:52;1.77;;;0.17;;
37241;SDS011;23135;51.078;12.108;2023-08-17T02:32:26;5.13;;;0.10;;
37241;SDS011;23135;51.078;12.108;2023-08-17T02:34:54;2.08;;;0.10;;
37241;SDS011;23135;51.078;12.108;2023-08-17T02:37:22;0.20;;;0.20;;
37241;SDS011;23135;51.078;12.108;2023-08-17T02:43:41;2.67;;;0.25;;
37241;SDS011;23135;51.078;12.108;2023-08-17T02:46:28;3.15;;;0.00;;
37241;SDS011;23135;51.078;12.108;2023-08-17T02:52:59;1.77;;;0.10;;
37241;SDS011;23135;51.078;12.108;2023-08-17T02:55:27;2.85;;;0.10;;
37241;SDS011;23135;51.078;12.108;2023-08-17T02:57:52;0.68;;;0.20;;
37241;SDS011;23135;51.078;12.108;2023-08-17T03:00:23;1.27;;;0.15;;
37241;SDS011;23135;51.078;12.108;2023-08-17T03:03:46;0.85;;;0.22;;
37241;SDS011;23135;51.078;12.108;2023-08-17T03:06:12;0.77;;;0.00;;
37241;SDS011;23135;51.078;12.108;2023-08-17T03:08:38;3.42;;;0.20;;
37241;SDS011;23135;51.078;12.108;2023-08-17T03:11:14;2.17;;;0.63;;
37241;SDS011;23135;51.078;12.108;2023-08-17T03:17:40;1.20;;;0.10;;
37241;SDS011;23135;51.078;12.108;2023-08-17T03:20:06;1.27;;;0.13;;
37241;SDS011;23135;51.078;12.108;2023-08-17T03:22:35;1.98;;;0.03;;
37241;SDS011;23135;51.078;12.108;2023-08-17T03:25:24;0.95;;;0.30;;
37241;SDS011;23135;51.078;12.108;2023-08-17T03:27:49;1.95;;;0.40;;
37241;SDS011;23135;51.078;12.108;2023-08-17T03:30:15;5.10;;;0.60;;
37241;SDS011;23135;51.078;12.108;2023-08-17T03:32:40;7.03;;;0.77;;
37241;SDS011;23135;51.078;12.108;2023-08-17T03:35:07;2.95;;;0.75;;
37241;SDS011;23135;51.078;12.108;2023-08-17T03:37:33;2.17;;;0.47;;
37241;SDS011;23135;51.078;12.108;2023-08-17T03:39:59;3.03;;;0.20;;
37241;SDS011;23135;51.078;12.108;2023-08-17T03:42:25;2.95;;;0.10;;
37241;SDS011;23135;51.078;12.108;2023-08-17T03:44:51;4.18;;;0.50;;
37241;SDS011;23135;51.078;12.108;2023-08-17T03:47:17;2.50;;;0.60;;
37241;SDS011;23135;51.078;12.108;2023-08-17T03:49:43;2.35;;;0.70;;
37241;SDS011;23135;51.078;12.108;2023-08-17T03:52:09;5.82;;;0.60;;
37241;SDS011;23135;51.078;12.108;2023-08-17T03:54:35;6.47;;;1.10;;
37241;SDS011;23135;51.078;12.108;2023-08-17T03:57:01;6.00;;;1.02;;
37241;SDS011;23135;51.078;12.108;2023-08-17T03:59:27;9.00;;;1.00;;
37241;SDS011;23135;51.078;12.108;2023-08-17T04:01:53;3.22;;;0.75;;
37241;SDS011;23135;51.078;12.108;2023-08-17T04:04:18;5.40;;;0.80;;
37241;SDS011;23135;51.078;12.108;2023-08-17T04:06:44;6.30;;;1.10;;
37241;SDS011;23135;51.078;12.108;2023-08-17T04:09:10;2.42;;;0.88;;
37241;SDS011;23135;51.078;12.108;2023-08-17T04:11:35;3.28;;;0.57;;
37241;SDS011;23135;51.078;12.108;2023-08-17T04:14:02;5.45;;;1.15;;
37241;SDS011;23135;51.078;12.108;2023-08-17T04:16:28;1.17;;;0.43;;
37241;SDS011;23135;51.078;12.108;2023-08-17T04:18:53;2.78;;;0.90;;
37241;SDS011;23135;51.078;12.108;2023-08-17T04:21:19;2.67;;;1.08;;
37241;SDS011;23135;51.078;12.108;2023-08-17T04:23:45;3.35;;;1.15;;
37241;SDS011;23135;51.078;12.108;2023-08-17T04:26:11;6.28;;;2.50;;
37241;SDS011;23135;51.078;12.108;2023-08-17T04:28:36;4.35;;;1.83;;
37241;SDS011;23135;51.078;12.108;2023-08-17T04:31:02;6.00;;;3.92;;
37241;SDS011;23135;51.078;12.108;2023-08-17T04:33:28;4.72;;;3.47;;
37241;SDS011;23135;51.078;12.108;2023-08-17T04:35:54;8.35;;;5.00;;
37241;SDS011;23135;51.078;12.108;2023-08-17T04:38:20;7.78;;;5.13;;
37241;SDS011;23135;51.078;12.108;2023-08-17T04:40:45;8.02;;;5.93;;
37241;SDS011;23135;51.078;12.108;2023-08-17T04:43:11;5.32;;;3.63;;
37241;SDS011;23135;51.078;12.108;2023-08-17T04:45:36;3.20;;;2.53;;
37241;SDS011;23135;51.078;12.108;2023-08-17T04:48:04;3.53;;;1.40;;
37241;SDS011;23135;51.078;12.108;2023-08-17T04:50:32;2.58;;;1.52;;
37241;SDS011;23135;51.078;12.108;2023-08-17T04:52:57;5.57;;;2.10;;
37241;SDS011;23135;51.078;12.108;2023-08-17T04:55:23;4.32;;;0.63;;
37241;SDS011;23135;51.078;12.108;2023-08-17T04:57:49;7.28;;;1.83;;
37241;SDS011;23135;51.078;12.108;2023-08-17T05:00:15;0.93;;;0.30;;
37241;SDS011;23135;51.078;12.108;2023-08-17T05:02:41;2.35;;;0.82;;
37241;SDS011;23135;51.078;12.108;2023-08-17T05:05:07;3.38;;;0.95;;
37241;SDS011;23135;51.078;12.108;2023-08-17T05:07:34;2.47;;;1.55;;
37241;SDS011;23135;51.078;12.108;2023-08-17T05:10:00;1.10;;;1.10;;
37241;SDS011;23135;51.078;12.108;2023-08-17T05:12:26;5.95;;;1.90;;
37241;SDS011;23135;51.078;12.108;2023-08-17T05:14:52;2.90;;;1.05;;
37241;SDS011;23135;51.078;12.108;2023-08-17T05:17:18;1.45;;;0.73;;
37241;SDS011;23135;51.078;12.108;2023-08-17T05:19:43;2.15;;;0.90;;
37241;SDS011;23135;51.078;12.108;2023-08-17T05:22:10;1.73;;;0.82;;
37241;SDS011;23135;51.078;12.108;2023-08-17T05:24:37;1.80;;;0.70;;
37241;SDS011;23135;51.078;12.108;2023-08-17T05:27:03;1.38;;;0.65;;
37241;SDS011;23135;51.078;12.108;2023-08-17T05:29:29;2.08;;;0.50;;
37241;SDS011;23135;51.078;12.108;2023-08-17T05:31:57;5.05;;;1.08;;
37241;SDS011;23135;51.078;12.108;2023-08-17T05:34:23;3.45;;;0.50;;
37241;SDS011;23135;51.078;12.108;2023-08-17T05:36:49;2.17;;;0.20;;
37241;SDS011;23135;51.078;12.108;2023-08-17T05:39:14;4.53;;;0.40;;
37241;SDS011;23135;51.078;12.108;2023-08-17T05:41:40;0.85;;;0.40;;
37241;SDS011;23135;51.078;12.108;2023-08-17T05:44:05;0.60;;;0.60;;
37241;SDS011;23135;51.078;12.108;2023-08-17T05:46:35;2.85;;;0.60;;
37241;SDS011;23135;51.078;12.108;2023-08-17T05:49:01;1.95;;;0.50;;
37241;SDS011;23135;51.078;12.108;2023-08-17T05:51:27;3.60;;;0.40;;
37241;SDS011;23135;51.078;12.108;2023-08-17T05:53:53;4.53;;;1.13;;
37241;SDS011;23135;51.078;12.108;2023-08-17T05:56:19;2.00;;;0.45;;
37241;SDS011;23135;51.078;12.108;2023-08-17T05:58:45;2.60;;;0.93;;
37241;SDS011;23135;51.078;12.108;2023-08-17T06:01:11;1.08;;;0.85;;
37241;SDS011;23135;51.078;12.108;2023-08-17T06:03:36;3.55;;;0.93;;
37241;SDS011;23135;51.078;12.108;2023-08-17T06:06:03;4.57;;;1.40;;
37241;SDS011;23135;51.078;12.108;2023-08-17T06:08:30;3.03;;;0.77;;
37241;SDS011;23135;51.078;12.108;2023-08-17T06:10:56;2.75;;;0.70;;
37241;SDS011;23135;51.078;12.108;2023-08-17T06:13:21;0.90;;;0.60;;
37241;SDS011;23135;51.078;12.108;2023-08-17T06:15:47;2.75;;;0.30;;
37241;SDS011;23135;51.078;12.108;2023-08-17T06:18:13;4.97;;;0.68;;
37241;SDS011;23135;51.078;12.108;2023-08-17T06:20:38;1.55;;;0.28;;
37241;SDS011;23135;51.078;12.108;2023-08-17T06:23:04;7.43;;;1.35;;
37241;SDS011;23135;51.078;12.108;2023-08-17T06:25:30;1.38;;;0.57;;
37241;SDS011;23135;51.078;12.108;2023-08-17T06:27:55;2.90;;;1.15;;
37241;SDS011;23135;51.078;12.108;2023-08-17T06:30:21;3.40;;;0.50;;
37241;SDS011;23135;51.078;12.108;2023-08-17T06:32:47;2.72;;;0.20;;
37241;SDS011;23135;51.078;12.108;2023-08-17T06:35:32;0.73;;;0.22;;
37241;SDS011;23135;51.078;12.108;2023-08-17T06:37:58;1.73;;;0.20;;
37241;SDS011;23135;51.078;12.108;2023-08-17T06:40:24;3.22;;;0.40;;
37241;SDS011;23135;51.078;12.108;2023-08-17T06:42:50;0.93;;;0.30;;
37241;SDS011;23135;51.078;12.108;2023-08-17T06:45:15;3.60;;;0.82;;
37241;SDS011;23135;51.078;12.108;2023-08-17T06:47:45;9.93;;;0.65;;
37241;SDS011;23135;51.078;12.108;2023-08-17T06:50:11;6.85;;;1.20;;
37241;SDS011;23135;51.078;12.108;2023-08-17T06:52:36;5.72;;;1.00;;
37241;SDS011;23135;51.078;12.108;2023-08-17T06:55:02;1.00;;;0.30;;
37241;SDS011;23135;51.078;12.108;2023-08-17T06:57:28;2.28;;;0.45;;
37241;SDS011;23135;51.078;12.108;2023-08-17T06:59:54;2.10;;;0.50;;
37241;SDS011;23135;51.078;12.108;2023-08-17T07:02:19;0.55;;;0.30;;
37241;SDS011;23135;51.078;12.108;2023-08-17T07:04:45;3.22;;;0.80;;
37241;SDS011;23135;51.078;12.108;2023-08-17T07:07:12;3.47;;;0.65;;
37241;SDS011;23135;51.078;12.108;2023-08-17T07:09:39;3.17;;;0.70;;
37241;SDS011;23135;51.078;12.108;2023-08-17T07:12:05;4.03;;;0.82;;
37241;SDS011;23135;51.078;12.108;2023-08-17T07:14:30;3.95;;;0.98;;
37241;SDS011;23135;51.078;12.108;2023-08-17T07:16:56;2.10;;;0.90;;
37241;SDS011;23135;51.078;12.108;2023-08-17T07:19:22;0.95;;;0.73;;
37241;SDS011;23135;51.078;12.108;2023-08-17T07:21:47;0.90;;;0.82;;
37241;SDS011;23135;51.078;12.108;2023-08-17T07:24:14;1.92;;;1.52;;
37241;SDS011;23135;51.078;12.108;2023-08-17T07:26:40;3.75;;;1.85;;
37241;SDS011;23135;51.078;12.108;2023-08-17T07:29:06;3.38;;;1.70;;
37241;SDS011;23135;51.078;12.108;2023-08-17T07:31:31;2.55;;;1.70;;
37241;SDS011;23135;51.078;12.108;2023-08-17T07:33:58;3.17;;;1.85;;
37241;SDS011;23135;51.078;12.108;2023-08-17T07:36:25;2.85;;;1.38;;
37241;SDS011;23135;51.078;12.108;2023-08-17T07:38:50;5.22;;;1.73;;
37241;SDS011;23135;51.078;12.108;2023-08-17T07:41:16;4.85;;;1.33;;
37241;SDS011;23135;51.078;12.108;2023-08-17T07:43:41;1.70;;;1.60;;
37241;SDS011;23135;51.078;12.108;2023-08-17T07:46:07;6.22;;;2.88;;
37241;SDS011;23135;51.078;12.108;2023-08-17T07:48:33;2.53;;;1.95;;
37241;SDS011;23135;51.078;12.108;2023-08-17T07:50:58;2.15;;;1.35;;
37241;SDS011;23135;51.078;12.108;2023-08-17T07:53:24;3.05;;;1.40;;
37241;SDS011;23135;51.078;12.108;2023-08-17T07:55:50;5.50;;;1.50;;
37241;SDS011;23135;51.078;12.108;2023-08-17T07:58:16;2.13;;;1.40;;
37241;SDS011;23135;51.078;12.108;2023-08-17T08:00:41;3.72;;;1.63;;
37241;SDS011;23135;51.078;12.108;2023-08-17T08:03:07;1.85;;;1.50;;
37241;SDS011;23135;51.078;12.108;2023-08-17T08:05:33;2.42;;;1.60;;
37241;SDS011;23135;51.078;12.108;2023-08-17T08:07:59;1.55;;;1.45;;
37241;SDS011;23135;51.078;12.108;2023-08-17T08:10:24;4.35;;;1.55;;
37241;SDS011;23135;51.078;12.108;2023-08-17T08:12:50;2.45;;;1.48;;
37241;SDS011;23135;51.078;12.108;2023-08-17T08:15:16;3.15;;;1.83;;
37241;SDS011;23135;51.078;12.108;2023-08-17T08:17:41;4.03;;;1.70;;
37241;SDS011;23135;51.078;12.108;2023-08-17T08:20:07;2.40;;;2.30;;
37241;SDS011;23135;51.078;12.108;2023-08-17T08:22:33;6.28;;;2.38;;
37241;SDS011;23135;51.078;12.108;2023-08-17T08:24:58;2.08;;;1.90;;
37241;SDS011;23135;51.078;12.108;2023-08-17T08:27:24;3.28;;;2.53;;
37241;SDS011;23135;51.078;12.108;2023-08-17T08:29:49;5.00;;;2.30;;
37241;SDS011;23135;51.078;12.108;2023-08-17T08:32:15;3.80;;;2.50;;
37241;SDS011;23135;51.078;12.108;2023-08-17T08:34:41;2.50;;;2.35;;
37241;SDS011;23135;51.078;12.108;2023-08-17T08:37:07;3.97;;;2.50;;
37241;SDS011;23135;51.078;12.108;2023-08-17T08:39:32;2.17;;;1.77;;
37241;SDS011;23135;51.078;12.108;2023-08-17T08:42:12;2.80;;;2.42;;
37241;SDS011;23135;51.078;12.108;2023-08-17T08:44:38;2.35;;;2.25;;
37241;SDS011;23135;51.078;12.108;2023-08-17T08:47:03;6.15;;;3.45;;
37241;SDS011;23135;51.078;12.108;2023-08-17T08:49:29;3.65;;;2.13;;
37241;SDS011;23135;51.078;12.108;2023-08-17T08:51:56;4.28;;;2.08;;
37241;SDS011;23135;51.078;12.108;2023-08-17T08:54:25;3.88;;;2.13;;
37241;SDS011;23135;51.078;12.108;2023-08-17T08:56:54;1.95;;;1.65;;
37241;SDS011;23135;51.078;12.108;2023-08-17T08:59:24;6.85;;;1.88;;
37241;SDS011;23135;51.078;12.108;2023-08-17T09:01:51;2.20;;;1.63;;
37241;SDS011;23135;51.078;12.108;2023-08-17T09:04:17;2.28;;;2.17;;
37241;SDS011;23135;51.078;12.108;2023-08-17T09:06:44;3.78;;;1.10;;
37241;SDS011;23135;51.078;12.108;2023-08-17T09:09:10;1.02;;;0.90;;
37241;SDS011;23135;51.078;12.108;2023-08-17T09:11:39;2.08;;;1.88;;
37241;SDS011;23135;51.078;12.108;2023-08-17T09:14:06;2.22;;;2.08;;
37241;SDS011;23135;51.078;12.108;2023-08-17T09:16:32;2.33;;;2.08;;
37241;SDS011;23135;51.078;12.108;2023-08-17T09:18:57;3.10;;;2.28;;
37241;SDS011;23135;51.078;12.108;2023-08-17T09:21:24;3.08;;;2.33;;
37241;SDS011;23135;51.078;12.108;2023-08-17T09:23:53;5.30;;;2.13;;
37241;SDS011;23135;51.078;12.108;2023-08-17T09:26:20;2.33;;;2.17;;
37241;SDS011;23135;51.078;12.108;2023-08-17T09:28:50;5.75;;;2.90;;
37241;SDS011;23135;51.078;12.108;2023-08-17T09:31:17;2.55;;;2.33;;
37241;SDS011;23135;51.078;12.108;2023-08-17T09:33:48;2.50;;;2.30;;
37241;SDS011;23135;51.078;12.108;2023-08-17T09:36:15;2.75;;;2.35;;
37241;SDS011;23135;51.078;12.108;2023-08-17T09:38:44;3.28;;;2.88;;
37241;SDS011;23135;51.078;12.108;2023-08-17T09:41:14;8.45;;;3.70;;
37241;SDS011;23135;51.078;12.108;2023-08-17T09:43:40;4.43;;;2.75;;
37241;SDS011;23135;51.078;12.108;2023-08-17T09:46:06;2.78;;;2.55;;
37241;SDS011;23135;51.078;12.108;2023-08-17T09:48:32;3.38;;;2.28;;
37241;SDS011;23135;51.078;12.108;2023-08-17T09:50:58;3.30;;;3.00;;
37241;SDS011;23135;51.078;12.108;2023-08-17T09:53:26;5.72;;;3.22;;
37241;SDS011;23135;51.078;12.108;2023-08-17T09:55:52;3.80;;;3.00;;
37241;SDS011;23135;51.078;12.108;2023-08-17T09:58:20;4.00;;;3.67;;
37241;SDS011;23135;51.078;12.108;2023-08-17T10:00:46;4.68;;;2.85;;
37241;SDS011;23135;51.078;12.108;2023-08-17T10:03:14;5.38;;;3.30;;
37241;SDS011;23135;51.078;12.108;2023-08-17T10:05:42;9.95;;;2.83;;
37241;SDS011;23135;51.078;12.108;2023-08-17T10:08:08;5.38;;;3.20;;
37241;SDS011;23135;51.078;12.108;2023-08-17T10:10:37;5.90;;;4.07;;
37241;SDS011;23135;51.078;12.108;2023-08-17T10:18:36;4.67;;;3.80;;
37241;SDS011;23135;51.078;12.108;2023-08-17T10:21:10;5.93;;;4.17;;
37241;SDS011;23135;51.078;12.108;2023-08-17T10:23:40;3.80;;;3.50;;
37241;SDS011;23135;51.078;12.108;2023-08-17T10:26:08;5.32;;;3.88;;
37241;SDS011;23135;51.078;12.108;2023-08-17T10:28:33;6.85;;;3.13;;
37241;SDS011;23135;51.078;12.108;2023-08-17T10:30:59;3.28;;;3.08;;
37241;SDS011;23135;51.078;12.108;2023-08-17T10:33:25;6.38;;;3.53;;
37241;SDS011;23135;51.078;12.108;2023-08-17T10:35:52;8.13;;;3.20;;
37241;SDS011;23135;51.078;12.108;2023-08-17T10:38:18;3.80;;;3.50;;
37241;SDS011;23135;51.078;12.108;2023-08-17T10:40:44;4.88;;;4.03;;
37241;SDS011;23135;51.078;12.108;2023-08-17T10:43:10;5.45;;;3.75;;
37241;SDS011;23135;51.078;12.108;2023-08-17T10:45:37;7.93;;;3.83;;
37241;SDS011;23135;51.078;12.108;2023-08-17T10:50:32;4.65;;;2.85;;
37241;SDS011;23135;51.078;12.108;2023-08-17T10:53:03;4.03;;;3.75;;
37241;SDS011;23135;51.078;12.108;2023-08-17T10:55:44;3.78;;;3.38;;
37241;SDS011;23135;51.078;12.108;2023-08-17T10:58:12;3.88;;;3.50;;
37241;SDS011;23135;51.078;12.108;2023-08-17T11:00:38;5.35;;;4.05;;
37241;SDS011;23135;51.078;12.108;2023-08-17T11:03:06;4.35;;;4.03;;
37241;SDS011;23135;51.078;12.108;2023-08-17T11:08:01;5.28;;;4.55;;
37241;SDS011;23135;51.078;12.108;2023-08-17T11:10:30;4.88;;;4.35;;
37241;SDS011;23135;51.078;12.108;2023-08-17T11:12:56;4.05;;;3.75;;
37241;SDS011;23135;51.078;12.108;2023-08-17T11:15:28;5.80;;;4.70;;
37241;SDS011;23135;51.078;12.108;2023-08-17T11:18:05;3.80;;;3.40;;
37241;SDS011;23135;51.078;12.108;2023-08-17T11:20:32;4.35;;;3.95;;
37241;SDS011;23135;51.078;12.108;2023-08-17T11:22:58;8.52;;;4.18;;
37241;SDS011;23135;51.078;12.108;2023-08-17T11:25:25;5.20;;;3.97;;
37241;SDS011;23135;51.078;12.108;2023-08-17T11:27:52;4.68;;;3.92;;
37241;SDS011;23135;51.078;12.108;2023-08-17T11:30:19;4.32;;;3.90;;
37241;SDS011;23135;51.078;12.108;2023-08-17T11:32:45;5.47;;;4.03;;
37241;SDS011;23135;51.078;12.108;2023-08-17T11:35:11;5.13;;;4.05;;
37241;SDS011;23135;51.078;12.108;2023-08-17T11:37:37;5.80;;;3.55;;
37241;SDS011;23135;51.078;12.108;2023-08-17T11:40:02;10.48;;;4.28;;
37241;SDS011;23135;51.078;12.108;2023-08-17T11:42:29;5.13;;;4.07;;
37241;SDS011;23135;51.078;12.108;2023-08-17T11:44:55;6.60;;;4.28;;
37241;SDS011;23135;51.078;12.108;2023-08-17T11:47:21;9.25;;;4.28;;
37241;SDS011;23135;51.078;12.108;2023-08-17T11:49:50;9.13;;;5.15;;
37241;SDS011;23135;51.078;12.108;2023-08-17T11:52:15;5.35;;;4.70;;
37241;SDS011;23135;51.078;12.108;2023-08-17T11:54:41;6.80;;;4.78;;
37241;SDS011;23135;51.078;12.108;2023-08-17T11:57:07;6.38;;;5.55;;
37241;SDS011;23135;51.078;12.108;2023-08-17T11:59:32;10.98;;;4.95;;
37241;SDS011;23135;51.078;12.108;2023-08-17T12:01:58;5.93;;;5.03;;
37241;SDS011;23135;51.078;12.108;2023-08-17T12:04:26;9.50;;;5.18;;
37241;SDS011;23135;51.078;12.108;2023-08-17T12:06:51;6.22;;;5.70;;
37241;SDS011;23135;51.078;12.108;2023-08-17T12:09:17;7.80;;;5.95;;
37241;SDS011;23135;51.078;12.108;2023-08-17T12:11:44;7.22;;;5.20;;
37241;SDS011;23135;51.078;12.108;2023-08-17T12:14:11;7.65;;;5.70;;
37241;SDS011;23135;51.078;12.108;2023-08-17T12:16:47;7.78;;;5.18;;
37241;SDS011;23135;51.078;12.108;2023-08-17T12:19:13;8.77;;;5.30;;
37241;SDS011;23135;51.078;12.108;2023-08-17T12:21:42;6.40;;;4.75;;
37241;SDS011;23135;51.078;12.108;2023-08-17T12:24:08;5.72;;;5.22;;
37241;SDS011;23135;51.078;12.108;2023-08-17T12:26:35;12.35;;;4.93;;
37241;SDS011;23135;51.078;12.108;2023-08-17T12:29:00;6.22;;;5.57;;
37241;SDS011;23135;51.078;12.108;2023-08-17T12:31:29;5.05;;;4.57;;
37241;SDS011;23135;51.078;12.108;2023-08-17T12:33:55;5.18;;;4.68;;
37241;SDS011;23135;51.078;12.108;2023-08-17T12:36:22;7.47;;;4.60;;
37241;SDS011;23135;51.078;12.108;2023-08-17T12:38:47;7.18;;;5.68;;
37241;SDS011;23135;51.078;12.108;2023-08-17T12:41:13;7.30;;;5.30;;
37241;SDS011;23135;51.078;12.108;2023-08-17T12:43:38;4.35;;;4.05;;
37241;SDS011;23135;51.078;12.108;2023-08-17T12:46:04;5.47;;;4.90;;
37241;SDS011;23135;51.078;12.108;2023-08-17T12:48:30;5.07;;;4.35;;
37241;SDS011;23135;51.078;12.108;2023-08-17T12:50:55;4.63;;;4.32;;
37241;SDS011;23135;51.078;12.108;2023-08-17T12:53:21;10.02;;;4.88;;
37241;SDS011;23135;51.078;12.108;2023-08-17T12:55:47;5.05;;;4.65;;
37241;SDS011;23135;51.078;12.108;2023-08-17T12:58:14;5.13;;;4.68;;
37241;SDS011;23135;51.078;12.108;2023-08-17T13:00:39;5.35;;;4.57;;
37241;SDS011;23135;51.078;12.108;2023-08-17T13:03:05;7.00;;;4.63;;
37241;SDS011;23135;51.078;12.108;2023-08-17T13:05:30;8.70;;;5.22;;
37241;SDS011;23135;51.078;12.108;2023-08-17T13:07:57;8.18;;;5.82;;
37241;SDS011;23135;51.078;12.108;2023-08-17T13:10:22;7.50;;;5.63;;
37241;SDS011;23135;51.078;12.108;2023-08-17T13:12:48;7.57;;;6.28;;
37241;SDS011;23135;51.078;12.108;2023-08-17T13:15:14;7.10;;;5.38;;
37241;SDS011;23135;51.078;12.108;2023-08-17T13:17:39;7.55;;;5.90;;
37241;SDS011;23135;51.078;12.108;2023-08-17T13:20:05;6.10;;;5.60;;
37241;SDS011;23135;51.078;12.108;2023-08-17T13:22:31;6.30;;;5.80;;
37241;SDS011;23135;51.078;12.108;2023-08-17T13:24:57;6.72;;;6.03;;
37241;SDS011;23135;51.078;12.108;2023-08-17T13:27:23;8.20;;;6.55;;
37241;SDS011;23135;51.078;12.108;2023-08-17T13:29:48;9.93;;;5.80;;
37241;SDS011;23135;51.078;12.108;2023-08-17T13:32:14;7.45;;;6.75;;
37241;SDS011;23135;51.078;12.108;2023-08-17T13:34:40;7.82;;;6.75;;
37241;SDS011;23135;51.078;12.108;2023-08-17T13:37:05;9.35;;;7.13;;
37241;SDS011;23135;51.078;12.108;2023-08-17T13:39:31;10.98;;;6.97;;
37241;SDS011;23135;51.078;12.108;2023-08-17T13:41:57;11.13;;;7.13;;
37241;SDS011;23135;51.078;12.108;2023-08-17T13:44:23;7.47;;;6.78;;
37241;SDS011;23135;51.078;12.108;2023-08-17T13:46:48;11.75;;;8.32;;
37241;SDS011;23135;51.078;12.108;2023-08-17T13:49:14;8.57;;;7.63;;
37241;SDS011;23135;51.078;12.108;2023-08-17T13:51:40;12.80;;;8.77;;
37241;SDS011;23135;51.078;12.108;2023-08-17T13:54:05;17.08;;;7.75;;
37241;SDS011;23135;51.078;12.108;2023-08-17T13:56:31;9.75;;;7.13;;
37241;SDS011;23135;51.078;12.108;2023-08-17T13:58:57;9.55;;;7.93;;
37241;SDS011;23135;51.078;12.108;2023-08-17T14:01:22;8.65;;;7.43;;
37241;SDS011;23135;51.078;12.108;2023-08-17T14:03:48;8.68;;;7.20;;
37241;SDS011;23135;51.078;12.108;2023-08-17T14:06:13;12.80;;;7.95;;
37241;SDS011;23135;51.078;12.108;2023-08-17T14:08:40;10.82;;;8.23;;
37241;SDS011;23135;51.078;12.108;2023-08-17T14:11:06;11.23;;;8.68;;
37241;SDS011;23135;51.078;12.108;2023-08-17T14:13:32;9.02;;;8.13;;
37241;SDS011;23135;51.078;12.108;2023-08-17T14:16:00;13.30;;;8.57;;
37241;SDS011;23135;51.078;12.108;2023-08-17T14:18:25;11.85;;;8.43;;
37241;SDS011;23135;51.078;12.108;2023-08-17T14:20:51;12.85;;;8.50;;
37241;SDS011;23135;51.078;12.108;2023-08-17T14:23:17;9.00;;;8.20;;
37241;SDS011;23135;51.078;12.108;2023-08-17T14:25:42;9.75;;;8.70;;
37241;SDS011;23135;51.078;12.108;2023-08-17T14:28:08;9.25;;;7.68;;
37241;SDS011;23135;51.078;12.108;2023-08-17T14:30:34;9.07;;;8.07;;
37241;SDS011;23135;51.078;12.108;2023-08-17T14:32:59;12.82;;;8.52;;
37241;SDS011;23135;51.078;12.108;2023-08-17T14:35:26;12.25;;;8.57;;
37241;SDS011;23135;51.078;12.108;2023-08-17T14:37:52;10.32;;;8.55;;
37241;SDS011;23135;51.078;12.108;2023-08-17T14:40:18;8.95;;;8.10;;
37241;SDS011;23135;51.078;12.108;2023-08-17T14:42:46;9.32;;;7.93;;
37241;SDS011;23135;51.078;12.108;2023-08-17T14:45:12;9.52;;;8.48;;
37241;SDS011;23135;51.078;12.108;2023-08-17T14:47:37;10.82;;;8.48;;
37241;SDS011;23135;51.078;12.108;2023-08-17T14:50:03;9.27;;;8.25;;
37241;SDS011;23135;51.078;12.108;2023-08-17T14:52:29;8.35;;;7.50;;
37241;SDS011;23135;51.078;12.108;2023-08-17T14:54:55;9.98;;;8.95;;
37241;SDS011;23135;51.078;12.108;2023-08-17T14:57:21;9.55;;;8.27;;
37241;SDS011;23135;51.078;12.108;2023-08-17T14:59:46;9.73;;;8.77;;